Time;durP1;ratioP1;P1;durP2;ratioP2;P2;SDS_P1;SDS_P2;PMS_P1;PMS_P2;Temp;Humidity;BMP_temperature;BMP_pressure;BME280_temperature;BME280_humidity;BME280_pressure;Samples;Min_cycle;Max_cycle;Signal;HPM_P1;HPM_P2
2021/03/26 00:00:36;;;;;;;10.60;8.10;;;10.30;87.00;;;;;;10517562;28;20224;-79
2021/03/26 00:05:37;;;;;;;9.57;8.70;;;10.40;87.50;;;;;;10535993;28;20216;-80
2021/03/26 00:10:39;;;;;;;9.20;8.00;;;10.40;87.40;;;;;;10527131;28;20254;-79
2021/03/26 00:15:42;;;;;;;9.20;8.30;;;10.50;87.60;;;;;;10529486;28;20659;-80
2021/03/26 00:20:44;;;;;;;9.10;8.07;;;10.50;87.60;;;;;;10525882;28;20660;-78
2021/03/26 00:25:45;;;;;;;10.70;9.10;;;10.60;87.80;;;;;;10523770;28;20702;-79
2021/03/26 00:30:48;;;;;;;11.67;8.20;;;10.60;88.00;;;;;;10533359;28;20579;-79
2021/03/26 00:35:50;;;;;;;9.70;8.60;;;10.60;88.10;;;;;;10528243;28;20613;-79
2021/03/26 00:40:52;;;;;;;9.17;8.37;;;10.70;88.20;;;;;;10548109;28;20206;-81
2021/03/26 00:45:55;;;;;;;8.87;7.70;;;10.70;88.40;;;;;;10548846;28;20299;-80
2021/03/26 00:50:59;;;;;;;9.43;8.63;;;10.60;88.50;;;;;;10539619;28;20578;-78
2021/03/26 00:56:02;;;;;;;10.00;9.03;;;10.60;88.90;;;;;;10538532;28;20307;-78
2021/03/26 01:01:06;;;;;;;10.73;7.97;;;10.50;88.50;;;;;;10537543;28;20211;-79
2021/03/26 01:06:09;;;;;;;9.80;8.63;;;10.40;88.80;;;;;;10525024;28;20220;-78
2021/03/26 01:11:17;;;;;;;8.97;8.10;;;10.30;88.50;;;;;;10540190;28;20283;-79
2021/03/26 01:16:21;;;;;;;11.03;8.57;;;10.20;88.70;;;;;;10538171;28;20269;-79
2021/03/26 01:21:28;;;;;;;8.83;7.93;;;10.10;89.50;;;;;;10538894;28;20237;-79
2021/03/26 01:26:31;;;;;;;8.63;7.83;;;10.00;89.20;;;;;;10538540;28;20224;-80
2021/03/26 01:31:53;;;;;;;9.07;8.07;;;9.90;90.40;;;;;;10536672;28;20238;-79
2021/03/26 01:36:56;;;;;;;9.87;8.87;;;9.80;90.70;;;;;;10513645;28;20212;-78
2021/03/26 01:41:58;;;;;;;8.90;8.00;;;9.70;90.30;;;;;;10537424;28;20200;-78
2021/03/26 01:47:01;;;;;;;8.97;8.13;;;9.70;90.40;;;;;;10537918;28;20606;-78
2021/03/26 01:52:03;;;;;;;10.10;9.20;;;9.60;90.50;;;;;;10540666;28;20204;-78
2021/03/26 01:57:06;;;;;;;9.90;9.00;;;9.60;90.60;;;;;;10553319;28;20215;-79
2021/03/26 02:02:29;;;;;;;8.33;7.43;;;9.60;90.40;;;;;;10526720;28;20207;-79
2021/03/26 02:08:05;;;;;;;9.00;8.10;;;9.60;91.10;;;;;;10524167;28;20628;-79
2021/03/26 02:13:24;;;;;;;9.97;8.93;;;9.50;90.70;;;;;;10538029;28;20553;-80
2021/03/26 02:18:31;;;;;;;10.90;8.10;;;9.50;90.80;;;;;;10509969;28;20220;-79
2021/03/26 02:23:36;;;;;;;10.30;8.53;;;9.50;91.00;;;;;;10520690;28;20199;-79
2021/03/26 02:28:46;;;;;;;10.10;9.10;;;9.40;90.90;;;;;;10536648;28;20247;-81
2021/03/26 02:34:07;;;;;;;8.50;7.70;;;9.40;91.10;;;;;;10524211;28;20711;-79
2021/03/26 02:39:21;;;;;;;11.13;9.53;;;9.30;91.00;;;;;;10537737;28;20217;-78
2021/03/26 02:44:42;;;;;;;8.97;8.07;;;9.40;91.10;;;;;;10536427;28;20248;-77
2021/03/26 02:49:49;;;;;;;11.20;8.47;;;9.30;90.90;;;;;;10518937;28;20230;-81
2021/03/26 02:54:57;;;;;;;9.00;8.17;;;9.30;91.10;;;;;;10537339;28;20594;-79
2021/03/26 03:00:06;;;;;;;9.00;8.10;;;9.30;91.30;;;;;;10536976;28;20216;-80
2021/03/26 03:05:11;;;;;;;9.27;8.37;;;9.30;91.20;;;;;;10536108;28;20234;-78
2021/03/26 03:10:24;;;;;;;9.07;8.17;;;9.20;91.30;;;;;;10535405;28;20226;-80
2021/03/26 03:15:29;;;;;;;8.60;7.10;;;9.10;91.30;;;;;;10536259;28;20589;-80
2021/03/26 03:20:37;;;;;;;7.90;7.20;;;9.10;91.60;;;;;;10528955;28;20306;-81
2021/03/26 03:25:41;;;;;;;8.90;8.00;;;9.00;91.50;;;;;;10530121;28;20192;-79
2021/03/26 03:30:50;;;;;;;8.87;7.73;;;9.00;91.60;;;;;;10516871;28;20204;-80
2021/03/26 03:35:57;;;;;;;10.20;7.50;;;8.90;91.60;;;;;;10512407;28;20249;-79
2021/03/26 03:41:07;;;;;;;9.13;8.20;;;8.80;91.70;;;;;;10521751;28;20192;-79
2021/03/26 03:46:20;;;;;;;9.17;8.23;;;8.70;91.50;;;;;;10535172;28;20699;-79
2021/03/26 03:51:44;;;;;;;12.97;9.50;;;8.70;91.70;;;;;;10536104;28;20195;-79
2021/03/26 03:56:50;;;;;;;9.03;8.13;;;8.60;91.70;;;;;;10536015;28;20275;-79
2021/03/26 04:01:58;;;;;;;9.47;8.50;;;8.60;91.90;;;;;;10523185;28;20710;-79
2021/03/26 04:07:04;;;;;;;10.50;9.40;;;8.50;91.80;;;;;;10538846;28;20223;-79
2021/03/26 04:12:13;;;;;;;12.00;9.30;;;8.50;92.00;;;;;;10536042;28;20334;-79
2021/03/26 04:17:26;;;;;;;13.70;9.53;;;8.50;92.20;;;;;;10539975;28;20208;-80
2021/03/26 04:22:40;;;;;;;11.27;10.20;;;8.50;92.10;;;;;;10533224;28;20212;-80
2021/03/26 04:28:03;;;;;;;11.83;10.63;;;8.50;92.40;;;;;;10539061;28;20221;-79
2021/03/26 04:33:13;;;;;;;12.23;9.97;;;8.60;92.40;;;;;;10526313;28;20260;-79
2021/03/26 04:38:22;;;;;;;11.77;9.53;;;8.70;92.60;;;;;;10531299;28;20243;-78
2021/03/26 04:43:31;;;;;;;11.00;9.90;;;8.70;92.60;;;;;;10540303;28;20204;-78
2021/03/26 04:48:48;;;;;;;13.03;9.73;;;8.70;92.50;;;;;;10534957;28;20748;-79
2021/03/26 04:54:13;;;;;;;10.20;9.20;;;8.70;92.70;;;;;;10511959;28;20200;-78
2021/03/26 04:59:28;;;;;;;12.00;10.70;;;8.80;92.70;;;;;;10536542;28;20215;-79
2021/03/26 05:04:42;;;;;;;12.33;11.00;;;8.90;92.70;;;;;;10518018;28;20211;-79
2021/03/26 05:09:48;;;;;;;11.63;10.07;;;8.90;92.60;;;;;;10539412;28;20230;-78
2021/03/26 05:15:21;;;;;;;10.37;9.27;;;8.90;92.70;;;;;;10537112;28;20599;-78
2021/03/26 05:20:32;;;;;;;10.13;9.00;;;8.90;92.80;;;;;;10539577;28;20257;-78
2021/03/26 05:25:57;;;;;;;11.23;8.70;;;8.80;92.80;;;;;;10539349;28;20203;-78
2021/03/26 05:31:39;;;;;;;9.40;8.33;;;8.80;92.90;;;;;;10536611;28;20197;-78
2021/03/26 05:37:01;;;;;;;11.80;10.27;;;8.80;93.00;;;;;;10524991;28;20231;-78
2021/03/26 05:42:38;;;;;;;10.90;9.80;;;8.80;92.90;;;;;;10511098;28;20201;-80
2021/03/26 05:48:11;;;;;;;10.63;9.40;;;8.70;93.10;;;;;;10520388;28;20272;-78
2021/03/26 05:53:27;;;;;;;10.90;9.80;;;8.80;93.10;;;;;;10541810;28;20647;-79
2021/03/26 05:59:22;;;;;;;11.30;10.10;;;8.80;93.10;;;;;;10514447;28;20209;-80
2021/03/26 06:04:51;;;;;;;10.63;9.63;;;8.80;93.20;;;;;;10513364;28;20192;-79
2021/03/26 06:10:33;;;;;;;11.60;10.50;;;8.90;93.30;;;;;;10520098;28;20497;-78
2021/03/26 06:16:27;;;;;;;13.73;11.63;;;9.10;93.10;;;;;;10524310;28;20207;-79
2021/03/26 06:22:05;;;;;;;14.00;12.50;;;9.20;93.00;;;;;;10539187;28;20195;-79
2021/03/26 06:27:38;;;;;;;13.93;12.50;;;9.30;92.50;;;;;;10541068;28;20215;-78
2021/03/26 06:33:19;;;;;;;14.37;12.93;;;9.60;92.60;;;;;;10537795;28;20204;-79
2021/03/26 06:39:07;;;;;;;14.73;12.60;;;9.70;92.60;;;;;;10521105;28;20710;-79
2021/03/26 06:44:35;;;;;;;15.43;12.00;;;9.90;92.30;;;;;;10529128;28;20203;-79
2021/03/26 06:49:47;;;;;;;13.77;12.37;;;10.10;91.60;;;;;;10540412;28;20276;-78
2021/03/26 06:55:19;;;;;;;14.27;12.37;;;10.20;91.00;;;;;;10547167;28;20200;-79
2021/03/26 07:00:48;;;;;;;15.90;13.50;;;10.30;91.20;;;;;;10514691;28;20248;-78
2021/03/26 07:06:20;;;;;;;14.87;13.27;;;10.50;91.20;;;;;;10495456;28;20230;-78
2021/03/26 07:11:51;;;;;;;15.50;13.50;;;10.60;90.70;;;;;;10530200;28;20707;-78
2021/03/26 07:17:27;;;;;;;19.93;13.27;;;10.80;90.60;;;;;;10549889;28;20590;-79
2021/03/26 07:23:01;;;;;;;15.50;12.13;;;10.90;90.70;;;;;;10545310;28;20575;-79
2021/03/26 07:28:18;;;;;;;16.10;13.50;;;10.90;90.70;;;;;;10551191;28;20227;-78
2021/03/26 07:33:27;;;;;;;15.63;13.07;;;11.00;91.10;;;;;;10550632;28;20290;-79
2021/03/26 07:38:58;;;;;;;13.87;12.33;;;11.20;90.60;;;;;;10532591;28;20208;-78
2021/03/26 07:44:38;;;;;;;16.60;13.10;;;11.30;90.40;;;;;;10550511;28;20216;-80
2021/03/26 07:50:09;;;;;;;16.47;13.53;;;11.40;90.30;;;;;;10540586;28;20697;-79
2021/03/26 07:55:21;;;;;;;14.60;13.10;;;11.50;89.30;;;;;;10542147;28;20290;-79
2021/03/26 08:00:53;;;;;;;14.37;12.33;;;11.50;90.10;;;;;;10529674;28;20265;-78
2021/03/26 08:06:13;;;;;;;13.67;12.10;;;11.50;90.40;;;;;;10520962;28;20200;-78
2021/03/26 08:11:48;;;;;;;14.40;13.00;;;11.60;90.40;;;;;;10510729;28;20203;-80
2021/03/26 08:17:10;;;;;;;16.47;14.40;;;11.60;90.20;;;;;;10498219;28;20207;-81
2021/03/26 08:22:21;;;;;;;13.43;12.10;;;11.70;90.00;;;;;;10525112;28;20204;-79
2021/03/26 08:27:38;;;;;;;14.60;13.10;;;11.90;88.70;;;;;;10517172;22;20228;-79
2021/03/26 08:32:59;;;;;;;16.73;14.77;;;12.00;90.00;;;;;;10477803;28;20205;-77
2021/03/26 08:38:23;;;;;;;20.30;15.10;;;12.00;89.40;;;;;;10475431;28;20221;-77
2021/03/26 08:43:27;;;;;;;16.33;14.73;;;12.20;89.20;;;;;;10462394;28;20201;-76
2021/03/26 08:48:36;;;;;;;19.87;15.00;;;12.30;88.90;;;;;;10475570;28;20224;-77
2021/03/26 08:53:49;;;;;;;16.47;13.37;;;12.40;88.60;;;;;;10447257;28;20292;-77
2021/03/26 08:59:26;;;;;;;17.90;14.60;;;12.60;89.10;;;;;;10449095;28;20232;-77
2021/03/26 09:05:05;;;;;;;18.23;15.40;;;12.70;88.20;;;;;;10435530;28;20287;-77
2021/03/26 09:10:26;;;;;;;16.07;13.50;;;12.80;87.00;;;;;;10444064;28;20239;-78
2021/03/26 09:15:43;;;;;;;14.50;12.93;;;13.00;85.60;;;;;;10446824;28;20661;-78
2021/03/26 09:20:57;;;;;;;15.77;13.20;;;13.10;85.70;;;;;;10448019;28;20213;-77
2021/03/26 09:26:07;;;;;;;15.70;13.40;;;13.30;85.50;;;;;;10429324;28;20597;-77
2021/03/26 09:31:13;;;;;;;15.47;12.60;;;13.50;85.10;;;;;;10428600;28;20493;-77
2021/03/26 09:36:21;;;;;;;12.60;11.40;;;13.80;84.60;;;;;;10453144;28;20287;-77
2021/03/26 09:41:30;;;;;;;14.70;12.00;;;14.00;83.70;;;;;;10451191;28;20209;-77
2021/03/26 09:46:39;;;;;;;11.73;9.40;;;14.20;83.80;;;;;;10446403;28;20316;-77
2021/03/26 09:51:47;;;;;;;12.07;10.80;;;14.40;81.30;;;;;;10447411;28;20284;-77
2021/03/26 09:57:00;;;;;;;12.03;10.50;;;14.70;80.80;;;;;;10457682;28;20261;-77
2021/03/26 10:02:15;;;;;;;12.67;11.07;;;15.00;79.50;;;;;;10447925;28;20630;-77
2021/03/26 10:07:29;;;;;;;14.03;9.97;;;15.20;78.60;;;;;;10443332;28;20232;-77
2021/03/26 10:12:40;;;;;;;9.43;8.27;;;15.40;75.60;;;;;;10445096;28;20204;-77
2021/03/26 10:17:52;;;;;;;10.77;9.70;;;15.50;76.90;;;;;;10442309;28;20233;-77
2021/03/26 10:23:04;;;;;;;12.80;9.53;;;15.40;75.50;;;;;;10445674;28;20193;-76
2021/03/26 10:28:17;;;;;;;14.03;11.37;;;15.30;74.40;;;;;;10461258;28;20299;-77
2021/03/26 10:33:20;;;;;;;9.83;8.83;;;15.10;75.40;;;;;;10449347;28;20669;-77
2021/03/26 10:38:43;;;;;;;10.17;9.07;;;15.00;75.90;;;;;;10467088;28;20708;-77
2021/03/26 10:43:55;;;;;;;12.67;9.50;;;15.00;75.00;;;;;;10443009;28;20216;-77
2021/03/26 10:49:01;;;;;;;10.07;8.90;;;15.10;74.50;;;;;;10444158;28;20225;-78
2021/03/26 10:54:15;;;;;;;8.43;7.53;;;15.20;75.40;;;;;;10458177;28;20201;-77
2021/03/26 10:59:24;;;;;;;7.23;5.80;;;15.30;73.40;;;;;;10467589;28;20217;-77
2021/03/26 11:04:36;;;;;;;5.90;5.40;;;15.50;70.30;;;;;;10451299;28;20223;-77
2021/03/26 11:09:42;;;;;;;7.47;6.77;;;15.40;69.10;;;;;;10449446;28;20573;-77
2021/03/26 11:14:51;;;;;;;6.60;5.67;;;15.30;70.30;;;;;;10454394;28;20204;-77
2021/03/26 11:20:35;;;;;;;5.83;5.17;;;15.20;71.80;;;;;;10440142;28;20216;-77
2021/03/26 11:25:39;;;;;;;5.37;4.87;;;15.20;68.10;;;;;;10461591;28;20207;-77
2021/03/26 11:30:48;;;;;;;8.00;5.00;;;15.20;66.80;;;;;;10448859;28;20232;-79
2021/03/26 11:35:52;;;;;;;5.10;4.60;;;15.30;65.80;;;;;;10455812;28;20213;-77
2021/03/26 11:41:07;;;;;;;5.40;4.90;;;15.30;66.70;;;;;;10452712;28;20693;-77
2021/03/26 11:46:13;;;;;;;7.87;5.13;;;15.30;66.00;;;;;;10470084;28;20200;-77
2021/03/26 11:51:27;;;;;;;6.00;5.50;;;15.20;67.90;;;;;;10473761;28;20201;-77
2021/03/26 11:56:51;;;;;;;6.47;5.77;;;15.10;65.60;;;;;;10470291;28;20224;-77
2021/03/26 12:02:01;;;;;;;5.60;5.10;;;15.20;65.50;;;;;;10467943;28;20201;-77
2021/03/26 12:07:08;;;;;;;6.43;5.77;;;15.40;66.50;;;;;;10463863;28;20224;-77
2021/03/26 12:12:20;;;;;;;6.47;5.20;;;15.50;66.50;;;;;;10468372;28;20201;-77
2021/03/26 12:17:42;;;;;;;8.00;6.30;;;15.50;66.30;;;;;;10467733;28;20300;-77
2021/03/26 12:23:06;;;;;;;8.03;6.50;;;15.60;66.00;;;;;;10460379;28;20209;-77
2021/03/26 12:28:18;;;;;;;8.20;6.90;;;15.50;67.50;;;;;;10460211;28;20712;-77
2021/03/26 12:33:27;;;;;;;8.20;6.70;;;15.40;69.10;;;;;;10459894;28;20282;-77
2021/03/26 12:38:39;;;;;;;7.70;5.90;;;15.30;69.60;;;;;;10457143;28;20252;-77
2021/03/26 12:43:57;;;;;;;9.50;6.50;;;15.20;67.90;;;;;;10446028;28;20752;-77
2021/03/26 12:49:05;;;;;;;6.53;5.83;;;15.20;67.90;;;;;;10454803;28;20217;-78
2021/03/26 12:54:16;;;;;;;8.93;5.67;;;15.20;66.20;;;;;;10458484;28;20201;-77
2021/03/26 12:59:24;;;;;;;5.37;4.83;;;15.20;66.80;;;;;;10459992;28;20299;-77
2021/03/26 13:04:44;;;;;;;6.53;6.03;;;15.20;69.00;;;;;;10463940;28;20201;-77
2021/03/26 13:09:56;;;;;;;4.90;4.50;;;15.20;68.10;;;;;;10468391;28;20288;-77
2021/03/26 13:15:02;;;;;;;4.77;4.33;;;15.20;65.30;;;;;;10442486;28;20225;-77
2021/03/26 13:20:05;;;;;;;5.43;4.43;;;15.30;66.80;;;;;;10448970;28;20249;-77
2021/03/26 13:25:23;;;;;;;5.47;4.07;;;15.40;65.80;;;;;;10431526;28;20205;-77
2021/03/26 13:30:41;;;;;;;6.40;4.50;;;15.50;65.00;;;;;;10436938;28;20271;-77
2021/03/26 13:35:47;;;;;;;4.70;3.97;;;15.50;62.40;;;;;;10449766;28;20308;-77
2021/03/26 13:40:52;;;;;;;5.97;4.83;;;15.70;62.60;;;;;;10455777;28;20762;-77
2021/03/26 13:45:57;;;;;;;5.07;4.17;;;15.80;59.90;;;;;;10447564;28;20985;-77
2021/03/26 13:51:04;;;;;;;5.67;5.10;;;16.10;59.70;;;;;;10455562;28;20233;-78
2021/03/26 13:56:13;;;;;;;4.50;4.10;;;16.30;59.70;;;;;;10457518;28;20201;-78
2021/03/26 14:01:30;;;;;;;4.73;4.33;;;16.30;61.60;;;;;;10445801;28;20246;-78
2021/03/26 14:06:41;;;;;;;4.50;3.50;;;16.30;60.10;;;;;;10446674;28;20775;-78
2021/03/26 14:11:55;;;;;;;3.97;3.60;;;16.40;59.00;;;;;;10446277;28;20688;-77
2021/03/26 14:17:01;;;;;;;5.13;3.17;;;16.50;61.10;;;;;;10448549;28;20240;-78
2021/03/26 14:22:30;;;;;;;5.70;3.40;;;16.50;59.70;;;;;;10450156;28;20198;-77
2021/03/26 14:27:43;;;;;;;3.33;3.13;;;16.50;58.90;;;;;;10440236;22;20283;-75
2021/03/26 14:33:31;;;;;;;5.73;3.47;;;16.50;59.10;;;;;;10529677;28;20192;-76
2021/03/26 14:38:38;;;;;;;3.80;3.00;;;16.60;58.60;;;;;;10523661;28;20290;-76
2021/03/26 14:43:42;;;;;;;2.83;2.63;;;16.60;59.40;;;;;;10521999;28;20188;-76
2021/03/26 14:48:48;;;;;;;5.43;3.43;;;16.60;57.40;;;;;;10530114;28;20232;-76
2021/03/26 14:53:57;;;;;;;3.60;3.30;;;16.70;55.00;;;;;;10510057;28;20279;-76
2021/03/26 14:59:05;;;;;;;4.40;3.33;;;16.80;54.10;;;;;;10516429;28;20216;-76
2021/03/26 15:04:15;;;;;;;3.53;3.33;;;16.80;56.30;;;;;;10517286;28;20672;-76
2021/03/26 15:09:26;;;;;;;3.50;3.30;;;16.80;56.60;;;;;;10515630;28;20265;-75
2021/03/26 15:14:44;;;;;;;3.83;3.53;;;16.70;54.80;;;;;;10532744;28;20204;-76
2021/03/26 15:19:49;;;;;;;3.23;2.87;;;16.80;54.50;;;;;;10532519;28;20223;-76
2021/03/26 15:25:04;;;;;;;3.73;3.43;;;16.90;53.40;;;;;;10530606;28;20203;-76
2021/03/26 15:30:21;;;;;;;3.67;3.37;;;16.90;53.90;;;;;;10545935;28;20326;-76
2021/03/26 15:35:29;;;;;;;3.70;3.37;;;16.80;55.40;;;;;;10525900;28;20930;-76
2021/03/26 15:40:39;;;;;;;3.37;2.83;;;16.80;55.10;;;;;;10530386;28;20280;-76
2021/03/26 15:45:48;;;;;;;3.70;2.73;;;16.80;53.20;;;;;;10524206;28;20227;-76
2021/03/26 15:51:06;;;;;;;3.50;3.20;;;16.70;52.40;;;;;;10553014;28;20682;-76
2021/03/26 15:56:24;;;;;;;3.07;2.83;;;16.60;53.60;;;;;;10545368;28;20222;-76
2021/03/26 16:01:35;;;;;;;3.50;3.20;;;16.50;56.00;;;;;;10556793;28;20306;-75
2021/03/26 16:06:50;;;;;;;4.83;3.37;;;16.50;54.90;;;;;;10538271;28;20203;-75
2021/03/26 16:12:28;;;;;;;4.93;2.90;;;16.50;57.00;;;;;;10535995;28;20203;-76
2021/03/26 16:18:00;;;;;;;3.50;3.20;;;16.40;55.90;;;;;;10541652;28;20538;-76
2021/03/26 16:23:09;;;;;;;3.43;3.10;;;16.20;57.80;;;;;;10538627;28;20215;-76
2021/03/26 16:28:44;;;;;;;2.97;2.77;;;16.10;58.40;;;;;;10523165;28;20224;-76
2021/03/26 16:34:04;;;;;;;4.37;3.53;;;16.00;59.00;;;;;;10535929;28;20545;-76
2021/03/26 16:39:39;;;;;;;3.37;3.17;;;15.90;59.40;;;;;;10534642;28;20601;-76
2021/03/26 16:45:02;;;;;;;3.90;3.47;;;15.90;59.40;;;;;;10510227;28;20269;-76
2021/03/26 16:50:14;;;;;;;4.00;3.63;;;15.80;59.00;;;;;;10537831;28;20715;-76
2021/03/26 16:55:22;;;;;;;4.07;3.30;;;15.70;61.10;;;;;;10536933;28;20229;-76
2021/03/26 17:01:08;;;;;;;4.87;3.87;;;15.70;58.80;;;;;;10533303;28;20575;-75
2021/03/26 17:06:43;;;;;;;3.63;3.30;;;15.70;58.30;;;;;;10546460;28;20199;-76
2021/03/26 17:12:01;;;;;;;3.60;3.30;;;15.70;58.10;;;;;;10526599;28;20655;-76
2021/03/26 17:17:53;;;;;;;5.23;4.73;;;15.70;59.10;;;;;;10536059;28;20223;-76
2021/03/26 17:23:15;;;;;;;3.63;3.33;;;15.70;61.20;;;;;;10537260;28;20291;-75
2021/03/26 17:28:58;;;;;;;3.60;3.20;;;15.50;62.00;;;;;;10524724;28;20577;-77
2021/03/26 17:34:03;;;;;;;4.77;3.17;;;15.40;63.40;;;;;;10540543;28;20256;-76
2021/03/26 17:39:20;;;;;;;4.47;3.73;;;15.20;64.00;;;;;;10534296;28;20596;-77
2021/03/26 17:44:48;;;;;;;6.07;5.47;;;15.10;61.50;;;;;;10535033;28;20199;-76
2021/03/26 17:50:25;;;;;;;5.67;4.03;;;15.10;61.80;;;;;;10533950;28;20291;-76
2021/03/26 17:55:51;;;;;;;4.77;4.30;;;15.10;62.50;;;;;;10502946;28;20196;-76
2021/03/26 18:00:58;;;;;;;4.73;4.27;;;15.10;63.40;;;;;;10534996;28;20218;-76
2021/03/26 18:06:28;;;;;;;4.17;3.60;;;15.00;63.40;;;;;;10533421;28;20286;-76
2021/03/26 18:11:41;;;;;;;10.03;3.47;;;14.90;63.20;;;;;;10534454;28;20236;-76
2021/03/26 18:16:53;;;;;;;4.23;3.90;;;14.80;63.40;;;;;;10531878;28;20282;-77
2021/03/26 18:22:16;;;;;;;4.73;4.43;;;14.70;63.10;;;;;;10532845;28;20276;-79
2021/03/26 18:27:41;;;;;;;5.00;4.30;;;14.60;63.50;;;;;;10525883;28;20582;-78
2021/03/26 18:33:01;;;;;;;5.07;4.53;;;14.50;63.90;;;;;;10527160;28;20207;-78
2021/03/26 18:38:21;;;;;;;5.67;4.53;;;14.40;64.40;;;;;;10523000;28;20268;-79
2021/03/26 18:43:56;;;;;;;6.73;5.90;;;14.30;65.10;;;;;;10539457;28;20298;-78
2021/03/26 18:49:19;;;;;;;8.80;6.07;;;14.30;65.30;;;;;;10524242;28;20311;-79
2021/03/26 18:54:31;;;;;;;9.43;7.13;;;14.10;66.00;;;;;;10521864;28;20199;-79
2021/03/26 19:00:18;;;;;;;8.63;6.17;;;14.00;66.30;;;;;;10527336;28;20208;-78
2021/03/26 19:05:25;;;;;;;6.57;5.80;;;14.00;66.90;;;;;;10440030;28;20635;-78
2021/03/26 19:10:33;;;;;;;6.33;5.73;;;14.00;66.80;;;;;;10541409;28;20443;-78
2021/03/26 19:15:51;;;;;;;8.10;6.77;;;13.90;67.30;;;;;;10543807;28;20195;-78
2021/03/26 19:21:23;;;;;;;6.30;5.80;;;13.90;67.30;;;;;;10538479;28;20211;-79
2021/03/26 19:26:32;;;;;;;6.50;5.90;;;13.90;67.90;;;;;;10543998;28;20490;-78
2021/03/26 19:31:45;;;;;;;9.20;5.47;;;13.90;68.30;;;;;;10545571;28;20212;-79
2021/03/26 19:36:55;;;;;;;5.60;5.03;;;13.90;68.50;;;;;;10550062;28;20207;-78
2021/03/26 19:42:06;;;;;;;7.07;5.40;;;13.90;68.40;;;;;;10544146;28;20613;-79
2021/03/26 19:47:34;;;;;;;5.77;5.27;;;14.00;68.90;;;;;;10544712;28;20243;-79
2021/03/26 19:52:45;;;;;;;5.23;4.73;;;14.00;69.00;;;;;;10544350;28;20196;-78
2021/03/26 19:58:12;;;;;;;4.80;4.40;;;14.00;68.70;;;;;;10552392;28;20265;-78
2021/03/26 20:03:28;;;;;;;4.63;4.03;;;14.10;67.70;;;;;;10543077;28;20196;-78
2021/03/26 20:08:41;;;;;;;5.83;5.30;;;14.20;67.90;;;;;;10543833;28;20704;-78
2021/03/26 20:13:50;;;;;;;6.73;5.97;;;14.30;67.70;;;;;;10542685;28;20199;-79
2021/03/26 20:19:09;;;;;;;7.20;6.00;;;14.30;69.40;;;;;;10543429;28;20212;-79
2021/03/26 20:24:20;;;;;;;10.30;6.47;;;14.30;69.10;;;;;;10557058;28;20204;-78
2021/03/26 20:29:26;;;;;;;8.23;7.43;;;14.30;69.30;;;;;;10571445;22;20269;-82
2021/03/26 20:34:39;;;;;;;5.07;4.57;;;14.30;69.50;;;;;;10549054;28;20196;-83
2021/03/26 20:39:53;;;;;;;5.17;4.67;;;14.30;68.90;;;;;;10526419;28;20263;-80
2021/03/26 20:45:10;;;;;;;5.80;5.23;;;14.20;68.60;;;;;;10525237;28;20287;-79
2021/03/26 20:50:26;;;;;;;7.60;6.13;;;14.30;71.50;;;;;;10548353;28;20219;-81
2021/03/26 20:55:37;;;;;;;7.93;6.87;;;14.20;70.00;;;;;;10550371;28;20285;-81
2021/03/26 21:01:07;;;;;;;7.10;6.20;;;14.10;70.90;;;;;;10587631;28;20231;-83
2021/03/26 21:06:13;;;;;;;6.27;5.70;;;14.00;71.70;;;;;;10573403;28;20655;-83
2021/03/26 21:11:24;;;;;;;6.70;5.97;;;14.00;70.10;;;;;;10573330;28;20219;-80
2021/03/26 21:16:30;;;;;;;10.20;6.00;;;13.90;69.70;;;;;;10544895;28;20200;-80
2021/03/26 21:21:43;;;;;;;6.90;6.17;;;13.80;69.90;;;;;;10557946;28;20238;-80
2021/03/26 21:27:08;;;;;;;8.73;7.03;;;13.70;70.70;;;;;;10580664;28;20332;-80
2021/03/26 21:32:18;;;;;;;7.67;6.87;;;13.60;70.90;;;;;;10563101;28;20559;-79
2021/03/26 21:37:31;;;;;;;6.40;5.80;;;13.40;71.10;;;;;;10517000;28;20218;-81
2021/03/26 21:42:44;;;;;;;9.23;8.43;;;13.40;71.20;;;;;;10555553;28;20206;-83
2021/03/26 21:47:58;;;;;;;9.50;7.70;;;13.30;71.20;;;;;;10549589;28;20627;-82
2021/03/26 21:53:20;;;;;;;6.90;6.10;;;13.20;72.00;;;;;;10533092;28;20203;-80
2021/03/26 21:58:29;;;;;;;8.03;5.50;;;13.10;72.10;;;;;;10529503;28;20761;-81
2021/03/26 22:03:47;;;;;;;6.40;5.90;;;13.00;72.80;;;;;;10508362;28;20723;-80
2021/03/26 22:09:35;;;;;;;6.83;5.80;;;12.90;72.70;;;;;;10490998;28;20234;-80
2021/03/26 22:14:42;;;;;;;6.87;6.17;;;12.90;72.80;;;;;;10411089;28;20229;-82
2021/03/26 22:19:49;;;;;;;12.23;9.20;;;12.80;73.30;;;;;;10513246;28;20225;-83
2021/03/26 22:24:57;;;;;;;7.13;6.33;;;12.80;73.20;;;;;;10523522;28;20675;-81
2021/03/26 22:30:10;;;;;;;7.77;6.47;;;12.70;73.40;;;;;;10490019;28;20577;-83
2021/03/26 22:35:21;;;;;;;6.97;6.33;;;12.70;73.70;;;;;;10494733;28;20690;-80
2021/03/26 22:40:28;;;;;;;7.13;6.43;;;12.60;73.60;;;;;;10490297;28;20214;-80
2021/03/26 22:45:45;;;;;;;7.40;6.70;;;12.70;73.90;;;;;;10539479;28;20238;-80
2021/03/26 22:51:18;;;;;;;7.07;6.43;;;12.60;73.90;;;;;;10548042;28;20705;-83
2021/03/26 22:56:23;;;;;;;6.50;5.90;;;12.60;74.20;;;;;;10529652;28;20567;-79
2021/03/26 23:01:27;;;;;;;7.77;6.53;;;12.50;74.60;;;;;;10506418;28;20204;-81
2021/03/26 23:06:38;;;;;;;8.20;7.10;;;12.50;75.10;;;;;;10528842;28;20211;-80
2021/03/26 23:11:44;;;;;;;6.00;5.40;;;12.50;75.00;;;;;;10532127;28;20713;-81
2021/03/26 23:16:56;;;;;;;6.67;6.03;;;12.50;75.40;;;;;;10531784;28;20240;-84
2021/03/26 23:22:03;;;;;;;6.90;5.83;;;12.40;75.50;;;;;;10530678;28;20210;-81
2021/03/26 23:27:09;;;;;;;6.50;6.00;;;12.30;76.20;;;;;;10538762;28;20584;-82
2021/03/26 23:32:15;;;;;;;6.10;5.50;;;12.40;76.40;;;;;;10495696;28;20639;-79
2021/03/26 23:37:22;;;;;;;7.60;6.53;;;12.40;76.90;;;;;;10511751;28;20221;-81
2021/03/26 23:42:30;;;;;;;7.00;6.40;;;12.50;77.30;;;;;;10516103;28;20212;-82
2021/03/26 23:47:40;;;;;;;9.23;6.60;;;12.60;77.10;;;;;;10516891;28;20262;-81
2021/03/26 23:52:47;;;;;;;6.13;5.53;;;12.70;77.20;;;;;;10499762;28;20602;-81
2021/03/26 23:57:51;;;;;;;8.27;7.13;;;12.80;77.50;;;;;;10522663;28;20775;-81
